createdAt,value
2019-03-12T00:00:49.156Z,87.09
2019-03-12T00:03:52.969Z,87.11
2019-03-12T00:06:56.772Z,87.30
2019-03-12T00:10:00.572Z,87.23
2019-03-12T00:13:04.472Z,87.30
2019-03-12T00:16:08.346Z,87.34
2019-03-12T00:19:12.149Z,87.16
2019-03-12T00:22:15.952Z,87.26
2019-03-12T00:25:19.757Z,87.23
2019-03-12T00:28:23.725Z,87.43
2019-03-12T00:31:27.619Z,87.49
2019-03-12T00:34:31.411Z,87.73
2019-03-12T00:37:35.322Z,87.86
2019-03-12T00:40:39.143Z,87.76
2019-03-12T00:43:42.963Z,87.70
2019-03-12T00:46:46.763Z,87.82
2019-03-12T00:49:50.651Z,87.93
2019-03-12T00:52:54.627Z,87.94
2019-03-12T00:55:58.506Z,87.94
2019-03-12T00:59:02.318Z,87.93
2019-03-12T01:02:15.918Z,88.80
2019-03-12T01:05:19.798Z,88.66
2019-03-12T01:08:23.640Z,88.58
2019-03-12T01:11:27.535Z,88.40
2019-03-12T01:14:31.350Z,88.30
2019-03-12T01:17:35.138Z,88.30
2019-03-12T01:20:38.963Z,88.12
2019-03-12T01:23:42.798Z,88.34
2019-03-12T01:26:46.664Z,88.43
2019-03-12T01:29:50.548Z,88.81
2019-03-12T01:32:54.366Z,88.99
2019-03-12T01:35:58.200Z,88.91
2019-03-12T01:39:02.002Z,89.35
2019-03-12T01:42:05.968Z,89.23
2019-03-12T01:45:11.320Z,89.45
2019-03-12T01:48:15.137Z,89.59
2019-03-12T01:51:18.965Z,89.86
2019-03-12T01:54:22.764Z,89.94
2019-03-12T01:57:26.592Z,90.03
2019-03-12T02:00:30.400Z,90.16
2019-03-12T02:03:34.309Z,90.19
2019-03-12T02:06:38.125Z,90.89
2019-03-12T02:09:42.049Z,90.50
2019-03-12T02:12:45.910Z,92.03
2019-03-12T02:15:49.732Z,92.72
2019-03-12T02:18:53.523Z,93.71
2019-03-12T02:21:57.415Z,93.95
2019-03-12T02:25:01.251Z,94.49
2019-03-12T02:28:05.784Z,94.72
2019-03-12T02:31:09.662Z,94.37
2019-03-12T02:34:13.619Z,94.51
2019-03-12T02:37:17.421Z,94.73
2019-03-12T02:40:21.327Z,94.94
2019-03-12T02:43:25.136Z,94.92
2019-03-12T02:46:28.967Z,94.79
2019-03-12T02:49:32.826Z,94.79
2019-03-12T02:52:36.645Z,94.78
2019-03-12T02:55:40.511Z,94.71
2019-03-12T02:58:44.297Z,94.67
2019-03-12T03:01:48.099Z,94.65
2019-03-12T03:04:54.220Z,94.61
2019-03-12T03:08:00.364Z,94.62
2019-03-12T03:11:04.271Z,94.55
2019-03-12T03:14:43.304Z,94.57
2019-03-12T03:17:47.202Z,94.56
2019-03-12T03:20:51.112Z,94.61
2019-03-12T03:23:54.905Z,94.61
2019-03-12T03:26:58.824Z,94.56
2019-03-12T03:30:02.718Z,94.50
2019-03-12T03:33:06.638Z,94.48
2019-03-12T03:36:10.479Z,94.49
2019-03-12T03:39:14.355Z,94.53
2019-03-12T03:42:18.522Z,94.59
2019-03-12T03:45:22.501Z,94.67
2019-03-12T03:48:26.321Z,94.70
2019-03-12T03:51:30.157Z,94.70
2019-03-12T03:54:33.968Z,94.73
2019-03-12T03:57:37.853Z,94.72
2019-03-12T04:00:41.745Z,94.71
2019-03-12T04:03:45.631Z,94.68
2019-03-12T04:06:49.451Z,94.67
2019-03-12T04:09:53.373Z,94.62
2019-03-12T04:12:57.274Z,94.57
2019-03-12T04:16:01.144Z,94.60
2019-03-12T04:19:05.018Z,94.61
2019-03-12T04:22:08.841Z,94.73
2019-03-12T04:25:13.042Z,94.83
2019-03-12T04:28:16.823Z,94.74
2019-03-12T04:31:20.631Z,94.70
2019-03-12T04:34:36.821Z,94.84
2019-03-12T04:37:40.666Z,94.89
2019-03-12T04:40:44.499Z,95.09
2019-03-12T04:43:48.320Z,95.03
2019-03-12T04:46:52.227Z,94.97
2019-03-12T04:49:56.042Z,95.07
2019-03-12T04:52:59.861Z,95.13
2019-03-12T04:56:03.672Z,95.14
2019-03-12T04:59:07.632Z,95.09
2019-03-12T05:02:11.458Z,95.09
2019-03-12T05:05:15.438Z,95.15
2019-03-12T05:08:19.336Z,95.20
2019-03-12T05:11:23.243Z,95.05
2019-03-12T05:14:31.627Z,95.05
2019-03-12T05:17:35.976Z,95.10
2019-03-12T05:20:39.781Z,95.14
2019-03-12T05:23:43.668Z,95.03
2019-03-12T05:26:47.468Z,95.11
2019-03-12T05:29:51.291Z,95.14
2019-03-12T05:32:55.096Z,95.25
2019-03-12T05:35:59.001Z,95.23
2019-03-12T05:39:03.741Z,95.29
2019-03-12T05:42:07.580Z,95.32
2019-03-12T05:45:11.900Z,95.32
2019-03-12T05:48:15.726Z,95.31
2019-03-12T05:51:19.516Z,95.39
2019-03-12T05:54:23.421Z,95.52
2019-03-12T05:57:27.217Z,95.37
2019-03-12T06:00:31.034Z,95.38
2019-03-12T06:03:34.825Z,95.57
2019-03-12T06:06:38.721Z,95.68
2019-03-12T06:09:42.560Z,95.67
2019-03-12T06:12:46.375Z,95.80
2019-03-12T06:15:53.118Z,95.96
2019-03-12T06:18:55.794Z,96.08
2019-03-12T06:21:59.682Z,96.13
2019-03-12T06:25:03.580Z,96.25
2019-03-12T06:28:07.385Z,96.36
2019-03-12T06:31:19.561Z,96.36
2019-03-12T06:34:31.194Z,96.38
2019-03-12T06:37:41.120Z,96.60
2019-03-12T06:41:03.041Z,96.73
2019-03-12T06:44:15.880Z,96.67
2019-03-12T06:47:53.820Z,96.68
2019-03-12T06:51:13.498Z,96.67
2019-03-12T06:54:36.326Z,96.76
2019-03-12T06:58:22.281Z,96.78
2019-03-12T07:01:43.632Z,96.84
2019-03-12T07:05:03.661Z,96.91
2019-03-12T07:08:38.618Z,96.90
2019-03-12T07:11:52.774Z,96.99
2019-03-12T07:15:15.562Z,96.90
2019-03-12T07:18:32.318Z,96.92
2019-03-12T07:21:58.609Z,96.97
2019-03-12T07:25:24.614Z,97.12
2019-03-12T07:28:50.196Z,97.33
2019-03-12T07:31:59.097Z,97.44
2019-03-12T07:35:27.894Z,97.53
2019-03-12T07:39:08.961Z,97.51
2019-03-12T07:42:30.418Z,97.43
2019-03-12T07:45:52.641Z,97.44
2019-03-12T07:49:08.749Z,97.58
2019-03-12T07:52:46.906Z,97.48
2019-03-12T07:56:24.791Z,97.30
2019-03-12T08:00:02.661Z,97.11
2019-03-12T08:03:30.252Z,97.16
2019-03-12T08:06:41.503Z,97.19
2019-03-12T08:09:55.970Z,97.12
2019-03-12T08:13:27.709Z,96.71
2019-03-12T08:17:02.553Z,96.66
2019-03-12T08:20:35.178Z,96.36
2019-03-12T08:24:13.899Z,95.98
2019-03-12T08:27:36.937Z,95.64
2019-03-12T08:30:45.648Z,94.77
2019-03-12T08:33:59.221Z,94.44
2019-03-12T08:37:25.051Z,94.03
2019-03-12T08:40:52.515Z,93.21
2019-03-12T08:44:08.184Z,92.76
2019-03-12T08:47:18.423Z,92.53
2019-03-12T08:50:34.013Z,92.68
2019-03-12T08:53:52.046Z,92.45
2019-03-12T08:57:14.851Z,92.18
2019-03-12T09:00:40.724Z,91.81
2019-03-12T09:04:01.130Z,91.90
2019-03-12T09:07:30.282Z,91.76
2019-03-12T09:10:43.663Z,91.64
2019-03-12T09:14:05.167Z,91.24
2019-03-12T09:17:18.755Z,91.18
2019-03-12T09:21:00.052Z,90.85
2019-03-12T09:24:31.629Z,91.26
2019-03-12T09:27:54.674Z,91.34
2019-03-12T09:31:10.543Z,91.19
2019-03-12T09:34:23.051Z,90.65
2019-03-12T09:37:40.254Z,91.29
2019-03-12T09:41:14.993Z,91.28
2019-03-12T09:44:37.818Z,91.49
2019-03-12T09:48:00.640Z,91.73
2019-03-12T09:51:09.334Z,91.70
2019-03-12T09:54:29.842Z,91.21
2019-03-12T09:57:53.593Z,91.03
2019-03-12T10:01:22.769Z,91.34
2019-03-12T10:04:44.238Z,90.10
2019-03-12T10:07:54.589Z,89.75
2019-03-12T10:11:04.728Z,89.02
2019-03-12T10:14:34.374Z,89.66
2019-03-12T10:17:56.196Z,89.72
2019-03-12T10:21:19.227Z,89.35
2019-03-12T10:24:54.160Z,89.73
2019-03-12T10:28:17.050Z,90.14
2019-03-12T10:31:55.346Z,89.72
2019-03-12T10:35:14.864Z,90.32
2019-03-12T10:39:02.375Z,90.56
2019-03-12T10:42:13.329Z,90.21
2019-03-12T10:45:22.061Z,91.61
2019-03-12T10:48:26.162Z,91.58
2019-03-12T10:51:30.254Z,91.49
2019-03-12T10:54:34.077Z,91.06
2019-03-12T10:57:38.012Z,91.52
2019-03-12T11:00:42.064Z,92.10
2019-03-12T11:03:45.957Z,92.46
2019-03-12T11:06:49.937Z,92.52
2019-03-12T11:09:53.783Z,92.18
2019-03-12T11:12:57.586Z,92.04
2019-03-12T11:16:01.418Z,92.26
2019-03-12T11:19:05.394Z,92.93
2019-03-12T11:22:09.361Z,92.29
2019-03-12T11:25:26.032Z,92.61
2019-03-12T11:28:18.995Z,92.92
2019-03-12T11:31:22.990Z,93.80
2019-03-12T11:34:26.884Z,93.95
2019-03-12T11:37:30.769Z,93.24
2019-03-12T11:40:34.647Z,93.53
2019-03-12T11:43:38.540Z,93.41
2019-03-12T11:46:45.743Z,93.81
2019-03-12T11:49:48.017Z,93.95
2019-03-12T11:52:55.483Z,94.36
2019-03-12T11:55:57.576Z,94.33
2019-03-12T11:59:01.469Z,94.07
2019-03-12T12:02:05.883Z,93.75
2019-03-12T12:05:09.898Z,93.90
2019-03-12T12:08:13.737Z,94.06
2019-03-12T12:11:17.701Z,93.91
2019-03-12T12:14:21.753Z,94.11
2019-03-12T12:17:25.578Z,93.12
2019-03-12T12:20:30.547Z,93.85
2019-03-12T12:23:34.567Z,93.76
2019-03-12T12:26:38.457Z,93.69
2019-03-12T12:29:42.255Z,93.88
2019-03-12T12:32:46.176Z,93.13
2019-03-12T12:35:49.977Z,92.96
2019-03-12T12:38:53.868Z,92.92
2019-03-12T12:41:57.769Z,93.28
2019-03-12T12:45:01.633Z,92.79
2019-03-12T12:48:05.552Z,92.43
2019-03-12T12:51:09.358Z,93.05
2019-03-12T12:54:13.160Z,93.39
2019-03-12T12:57:16.968Z,93.53
2019-03-12T13:00:21.436Z,93.10
2019-03-12T13:03:25.309Z,93.50
2019-03-12T13:06:29.183Z,94.01
2019-03-12T13:09:33.083Z,94.29
2019-03-12T13:12:36.975Z,94.13
2019-03-12T13:15:40.858Z,93.86
2019-03-12T13:18:44.729Z,93.36
2019-03-12T13:21:48.649Z,93.90
2019-03-12T13:24:52.454Z,93.95
2019-03-12T13:27:56.348Z,94.29
2019-03-12T13:31:00.212Z,94.04
2019-03-12T13:34:04.200Z,93.81
2019-03-12T13:37:08.086Z,94.02
2019-03-12T13:40:13.620Z,94.32
2019-03-12T13:43:17.513Z,93.70
2019-03-12T13:46:21.330Z,94.00
2019-03-12T13:49:25.136Z,94.44
2019-03-12T13:52:29.089Z,94.64
2019-03-12T13:55:33.353Z,94.24
2019-03-12T13:58:37.322Z,94.32
2019-03-12T14:01:41.238Z,93.95
2019-03-12T14:04:45.041Z,94.52
2019-03-12T14:07:49.008Z,94.67
2019-03-12T14:10:52.794Z,94.64
2019-03-12T14:13:56.668Z,94.79
2019-03-12T14:17:00.619Z,94.49
2019-03-12T14:20:28.021Z,94.46
2019-03-12T14:23:40.524Z,94.24
2019-03-12T14:26:44.312Z,93.37
2019-03-12T14:29:48.202Z,93.89
2019-03-12T14:32:52.052Z,93.18
2019-03-12T14:35:55.945Z,93.49
2019-03-12T14:38:59.917Z,93.11
2019-03-12T14:42:03.845Z,92.94
2019-03-12T14:45:11.855Z,92.83
2019-03-12T14:48:37.721Z,92.77
2019-03-12T14:51:56.849Z,92.46
2019-03-12T14:55:00.664Z,92.27
2019-03-12T14:58:04.571Z,92.35
2019-03-12T15:01:08.519Z,92.44
2019-03-12T15:04:14.861Z,92.02
2019-03-12T15:07:18.615Z,92.27
2019-03-12T15:10:22.559Z,91.38
2019-03-12T15:13:26.373Z,91.76
2019-03-12T15:16:30.200Z,91.91
2019-03-12T15:19:34.028Z,92.28
2019-03-12T15:22:37.866Z,92.67
2019-03-12T15:25:41.721Z,92.53
2019-03-12T15:28:45.535Z,93.48
2019-03-12T15:31:49.411Z,93.00
2019-03-12T15:34:53.277Z,92.45
2019-03-12T15:37:57.127Z,93.01
2019-03-12T15:41:00.940Z,93.04
2019-03-12T15:44:04.915Z,93.35
2019-03-12T15:47:09.008Z,93.55
2019-03-12T15:50:13.339Z,93.23
2019-03-12T15:53:17.314Z,92.62
2019-03-12T15:56:21.121Z,92.63
2019-03-12T15:59:24.951Z,92.42
2019-03-12T16:02:28.833Z,92.36
2019-03-12T16:05:32.649Z,91.08
2019-03-12T16:08:36.465Z,89.87
2019-03-12T16:11:40.279Z,89.88
2019-03-12T16:14:44.124Z,89.85
2019-03-12T16:17:48.011Z,89.27
2019-03-12T16:20:52.003Z,88.65
2019-03-12T16:23:55.798Z,88.95
2019-03-12T16:27:02.842Z,88.53
2019-03-12T16:30:06.564Z,88.23
2019-03-12T16:33:10.458Z,88.76
2019-03-12T16:36:14.373Z,88.99
2019-03-12T16:39:18.182Z,88.86
2019-03-12T16:42:34.301Z,89.14
2019-03-12T16:45:27.667Z,89.38
2019-03-12T16:48:31.448Z,89.22
2019-03-12T16:51:35.361Z,89.55
2019-03-12T16:54:39.191Z,89.53
2019-03-12T16:57:43.199Z,90.11
2019-03-12T17:00:47.057Z,90.42
2019-03-12T17:03:51.047Z,90.58
2019-03-12T17:06:54.958Z,90.64
2019-03-12T17:09:58.772Z,91.26
2019-03-12T17:13:02.585Z,91.32
2019-03-12T17:16:06.400Z,91.71
2019-03-12T17:19:10.219Z,91.38
2019-03-12T17:22:14.093Z,91.49
2019-03-12T17:25:18.005Z,91.75
2019-03-12T17:28:21.807Z,91.78
2019-03-12T17:31:25.613Z,91.75
2019-03-12T17:34:35.788Z,91.87
2019-03-12T17:37:34.962Z,92.39
2019-03-12T17:40:38.845Z,92.40
2019-03-12T17:43:42.656Z,92.43
2019-03-12T17:46:47.133Z,91.99
2019-03-12T17:49:50.910Z,92.50
2019-03-12T17:52:54.741Z,91.77
2019-03-12T17:55:58.551Z,91.51
2019-03-12T17:59:02.530Z,91.56
2019-03-12T18:02:06.590Z,91.32
2019-03-12T18:05:10.905Z,91.60
2019-03-12T18:08:14.717Z,91.74
2019-03-12T18:11:18.649Z,92.10
2019-03-12T18:14:22.456Z,91.68
2019-03-12T18:17:26.276Z,91.98
2019-03-12T18:20:30.099Z,92.11
2019-03-12T18:23:33.925Z,91.83
2019-03-12T18:26:37.736Z,91.66
2019-03-12T18:29:41.596Z,92.16
2019-03-12T18:32:45.538Z,91.94
2019-03-12T18:35:49.375Z,91.76
2019-03-12T18:38:53.252Z,90.87
2019-03-12T18:41:57.045Z,91.71
2019-03-12T18:45:00.830Z,92.24
2019-03-12T18:48:04.856Z,90.79
2019-03-12T18:51:08.635Z,90.82
2019-03-12T18:54:12.439Z,91.33
2019-03-12T18:57:16.252Z,91.12
2019-03-12T19:00:20.069Z,91.52
2019-03-12T19:03:23.868Z,91.58
2019-03-12T19:06:27.696Z,91.60
2019-03-12T19:09:31.507Z,91.57
2019-03-12T19:12:35.311Z,90.94
2019-03-12T19:15:39.260Z,91.49
2019-03-12T19:18:43.275Z,91.03
2019-03-12T19:21:47.169Z,90.43
2019-03-12T19:24:51.023Z,90.23
2019-03-12T19:27:59.850Z,90.30
2019-03-12T19:31:14.157Z,89.32
2019-03-12T19:34:24.713Z,89.71
2019-03-12T19:37:28.609Z,89.94
2019-03-12T19:40:32.998Z,89.41
2019-03-12T19:43:36.885Z,89.36
2019-03-12T19:46:40.854Z,89.66
2019-03-12T19:49:44.682Z,89.53
2019-03-12T19:52:48.622Z,89.06
2019-03-12T19:55:52.555Z,90.08
2019-03-12T19:58:56.431Z,90.25
2019-03-12T20:02:15.257Z,90.88
2019-03-12T20:05:09.443Z,90.12
2019-03-12T20:08:13.237Z,90.30
2019-03-12T20:11:54.639Z,90.41
2019-03-12T20:15:44.000Z,90.24
2019-03-12T20:19:56.251Z,90.71
2019-03-12T20:23:30.255Z,90.22
2019-03-12T20:27:05.173Z,90.66
2019-03-12T20:30:52.468Z,91.41
2019-03-12T20:34:40.355Z,91.69
2019-03-12T20:38:30.378Z,90.72
2019-03-12T20:42:29.824Z,90.22
2019-03-12T20:46:09.815Z,90.67
2019-03-12T20:49:47.829Z,90.71
2019-03-12T20:53:34.657Z,90.60
2019-03-12T20:57:25.909Z,91.04
2019-03-12T21:01:35.250Z,90.64
2019-03-12T21:05:29.161Z,91.10
2019-03-12T21:09:10.088Z,91.39
2019-03-12T21:13:10.415Z,91.16
2019-03-12T21:16:52.513Z,91.63
2019-03-12T21:20:23.213Z,91.10
2019-03-12T21:23:49.794Z,90.60
2019-03-12T21:27:24.850Z,90.74
2019-03-12T21:30:28.783Z,90.73
2019-03-12T21:33:32.567Z,90.66
2019-03-12T21:36:36.455Z,91.21
2019-03-12T21:39:54.064Z,91.56
2019-03-12T21:42:45.928Z,90.40
2019-03-12T21:45:49.894Z,90.50
2019-03-12T21:48:53.774Z,90.52
2019-03-12T21:51:57.571Z,90.65
2019-03-12T21:55:01.413Z,91.72
2019-03-12T21:58:05.341Z,91.66
2019-03-12T22:01:09.253Z,91.87
2019-03-12T22:04:13.076Z,92.03
2019-03-12T22:07:16.870Z,91.66
2019-03-12T22:10:20.746Z,91.87
2019-03-12T22:13:24.536Z,91.68
2019-03-12T22:16:28.345Z,91.66
2019-03-12T22:19:32.141Z,91.84
2019-03-12T22:23:00.345Z,92.20
2019-03-12T22:26:04.224Z,91.44
2019-03-12T22:29:08.028Z,92.24
2019-03-12T22:32:12.019Z,92.04
2019-03-12T22:35:15.830Z,92.10
2019-03-12T22:38:19.657Z,92.30
2019-03-12T22:41:23.435Z,92.86
2019-03-12T22:44:27.259Z,92.34
2019-03-12T22:47:31.116Z,92.79
2019-03-12T22:50:34.947Z,93.27
2019-03-12T22:53:38.801Z,93.72
2019-03-12T22:56:42.898Z,93.08
2019-03-12T22:59:46.697Z,93.23
2019-03-12T23:02:50.520Z,93.18
2019-03-12T23:05:54.468Z,93.42
2019-03-12T23:08:58.534Z,93.28
2019-03-12T23:12:02.505Z,93.23
2019-03-12T23:15:07.983Z,93.34
2019-03-12T23:18:11.946Z,93.56
2019-03-12T23:21:15.907Z,93.89
2019-03-12T23:24:19.714Z,94.17
2019-03-12T23:27:23.523Z,94.73
2019-03-12T23:30:28.895Z,92.52
2019-03-12T23:33:32.959Z,91.44
2019-03-12T23:36:36.878Z,90.72
2019-03-12T23:39:40.737Z,90.77
2019-03-12T23:42:44.784Z,90.57
2019-03-12T23:45:48.653Z,90.88
2019-03-12T23:48:52.449Z,91.40
2019-03-12T23:51:56.606Z,91.75
2019-03-12T23:55:00.471Z,91.71
2019-03-12T23:58:04.473Z,92.53
